X  SluitMETAR luchtvaart weer gegevens      EHGG Eelde

Temperatuur

16°C Temperatuur

6°C Dauwpunt

52% Vochtigheid



Wind

19 KM/U

12 MPH

 5 M/S

10 KTS



340°
NNWdir
Huidig weer

Veel verspreide wolken Veel verspreide wolken
Luchtdruk 1025.92 (hPa) - 30.3 (in)
Zicht 6.2 (mi) - 10 (km)
Vliegveld
Vliegveld code EHGG

Locatie Eelde 20 (km)

Metar:
EHGG 181055Z AUTO 34010KT 290V010 9999 SCT038 16/06 Q1026 NOSIG

Tijd: 18-09-2019 12:55